FARLZ LFPB-LFMD
Flight info
| Callsign | FARLZ |
|---|---|
| Flight time | 1h 3m |
| Altitude | 35000 |
| Route | LATRA DCT LAMUT DCT UTUVA DCT LERGA DCT LIQID DCT LATAM DCT MTL DCT XATEL |
| Aircraft | C750/M-SBDE3FGHRWXY/S |
Departure
| Time | 2026-04-21 20:23 |
|---|---|
| Airport | Paris-Le Bourget International Airport (LFPB) |
Arrival
| Time | 2026-04-21 21:26 |
|---|---|
| Airport | Cannes Mandelieu Airport (LFMD) |
| Time | Latitude | Longitude | Altitude | Speed | Heading |
|---|---|---|---|---|---|
| 2026-04-21 19:49 | 48.95692 | 2.44151 | 152 ft | 0 kts | 292° |
| 2026-04-21 20:16 | 48.95699 | 2.44152 | 152 ft | 2 kts | 17° |
| 2026-04-21 20:16 | 48.95735 | 2.44161 | 152 ft | 7 kts | 353° |
| 2026-04-21 20:17 | 48.95743 | 2.44104 | 153 ft | 7 kts | 238° |
| 2026-04-21 20:17 | 48.95703 | 2.44048 | 152 ft | 9 kts | 234° |
| 2026-04-21 20:17 | 48.95713 | 2.43937 | 151 ft | 13 kts | 294° |
| 2026-04-21 20:17 | 48.95753 | 2.43806 | 152 ft | 15 kts | 295° |
| 2026-04-21 20:18 | 48.95783 | 2.43707 | 153 ft | 16 kts | 295° |
| 2026-04-21 20:18 | 48.95849 | 2.43496 | 159 ft | 16 kts | 295° |
| 2026-04-21 20:18 | 48.95901 | 2.43321 | 157 ft | 21 kts | 292° |
| 2026-04-21 20:18 | 48.95971 | 2.43104 | 153 ft | 24 kts | 305° |
| 2026-04-21 20:19 | 48.96043 | 2.42966 | 149 ft | 15 kts | 308° |
| 2026-04-21 20:19 | 48.96107 | 2.42844 | 150 ft | 14 kts | 308° |
| 2026-04-21 20:19 | 48.96160 | 2.42743 | 153 ft | 10 kts | 308° |
| 2026-04-21 20:19 | 48.96195 | 2.42678 | 155 ft | 6 kts | 308° |
| 2026-04-21 20:20 | 48.96210 | 2.42649 | 157 ft | 1 kts | 309° |
| 2026-04-21 20:20 | 48.96221 | 2.42628 | 157 ft | 8 kts | 309° |
| 2026-04-21 20:20 | 48.96267 | 2.42495 | 158 ft | 17 kts | 280° |
| 2026-04-21 20:20 | 48.96266 | 2.42324 | 156 ft | 11 kts | 266° |
| 2026-04-21 20:21 | 48.96263 | 2.42223 | 157 ft | 9 kts | 266° |
| 2026-04-21 20:21 | 48.96262 | 2.42211 | 157 ft | 0 kts | 267° |
| 2026-04-21 20:21 | 48.96262 | 2.42205 | 157 ft | 3 kts | 267° |
| 2026-04-21 20:22 | 48.96265 | 2.42129 | 157 ft | 11 kts | 286° |
| 2026-04-21 20:22 | 48.96377 | 2.42183 | 154 ft | 0 kts | 85° |
| 2026-04-21 20:22 | 48.96377 | 2.42187 | 154 ft | 4 kts | 85° |
| 2026-04-21 20:23 | 48.96405 | 2.42698 | 161 ft | 101 kts | 85° |
| 2026-04-21 20:23 | 48.96477 | 2.44004 | 472 ft | 134 kts | 82° |
| 2026-04-21 20:23 | 48.96534 | 2.45532 | 1005 ft | 158 kts | 86° |
| 2026-04-21 20:23 | 48.96606 | 2.47336 | 1532 ft | 177 kts | 82° |
| 2026-04-21 20:24 | 48.96745 | 2.49160 | 2544 ft | 170 kts | 82° |
| 2026-04-21 20:24 | 48.96853 | 2.50929 | 3501 ft | 166 kts | 83° |
| 2026-04-21 20:24 | 48.96887 | 2.52665 | 4410 ft | 164 kts | 92° |
| 2026-04-21 20:24 | 48.96754 | 2.54373 | 5301 ft | 161 kts | 94° |
| 2026-04-21 20:25 | 48.96638 | 2.56059 | 6176 ft | 160 kts | 93° |
| 2026-04-21 20:25 | 48.96526 | 2.57738 | 6969 ft | 161 kts | 93° |
| 2026-04-21 20:25 | 48.96406 | 2.59564 | 7283 ft | 190 kts | 93° |
| 2026-04-21 20:25 | 48.96261 | 2.61714 | 7263 ft | 210 kts | 94° |
| 2026-04-21 20:26 | 48.96153 | 2.63255 | 7473 ft | 219 kts | 94° |
| 2026-04-21 20:26 | 48.95996 | 2.65504 | 8477 ft | 213 kts | 94° |
| 2026-04-21 20:26 | 48.95728 | 2.67772 | 9109 ft | 226 kts | 108° |
| 2026-04-21 20:26 | 48.94789 | 2.69727 | 9747 ft | 239 kts | 135° |
| 2026-04-21 20:27 | 48.93239 | 2.70948 | 10067 ft | 273 kts | 165° |
| 2026-04-21 20:27 | 48.91217 | 2.70745 | 10282 ft | 307 kts | 197° |
| 2026-04-21 20:27 | 48.89225 | 2.69370 | 10555 ft | 331 kts | 208° |
| 2026-04-21 20:27 | 48.87158 | 2.67589 | 10793 ft | 353 kts | 210° |
| 2026-04-21 20:28 | 48.84950 | 2.65818 | 11425 ft | 359 kts | 207° |
| 2026-04-21 20:28 | 48.82670 | 2.64160 | 12081 ft | 366 kts | 206° |
| 2026-04-21 20:28 | 48.80365 | 2.62446 | 12728 ft | 372 kts | 208° |
| 2026-04-21 20:28 | 48.78038 | 2.60625 | 13556 ft | 372 kts | 209° |
| 2026-04-21 20:29 | 48.75731 | 2.58837 | 14295 ft | 373 kts | 210° |
| 2026-04-21 20:29 | 48.73232 | 2.57612 | 14740 ft | 386 kts | 189° |
| 2026-04-21 20:29 | 48.70544 | 2.57380 | 15367 ft | 388 kts | 185° |
| 2026-04-21 20:29 | 48.67840 | 2.57180 | 15979 ft | 392 kts | 186° |
| 2026-04-21 20:30 | 48.65133 | 2.56903 | 16556 ft | 397 kts | 187° |
| 2026-04-21 20:30 | 48.62360 | 2.56613 | 17154 ft | 402 kts | 187° |
| 2026-04-21 20:30 | 48.59541 | 2.56361 | 17707 ft | 410 kts | 187° |
| 2026-04-21 20:30 | 48.56676 | 2.56115 | 18362 ft | 414 kts | 188° |
| 2026-04-21 20:31 | 48.53784 | 2.55844 | 18939 ft | 419 kts | 188° |
| 2026-04-21 20:31 | 48.50866 | 2.55563 | 19574 ft | 422 kts | 188° |
| 2026-04-21 20:31 | 48.47920 | 2.55291 | 20209 ft | 426 kts | 189° |
| 2026-04-21 20:31 | 48.44945 | 2.55023 | 20840 ft | 430 kts | 189° |
| 2026-04-21 20:32 | 48.41947 | 2.54746 | 21466 ft | 434 kts | 189° |
| 2026-04-21 20:32 | 48.38914 | 2.54464 | 22089 ft | 437 kts | 189° |
| 2026-04-21 20:32 | 48.35862 | 2.54183 | 22727 ft | 441 kts | 189° |
| 2026-04-21 20:32 | 48.32783 | 2.53901 | 23348 ft | 445 kts | 189° |
| 2026-04-21 20:33 | 48.29680 | 2.53616 | 23923 ft | 448 kts | 189° |
| 2026-04-21 20:33 | 48.26555 | 2.53329 | 24429 ft | 452 kts | 189° |
| 2026-04-21 20:33 | 48.23402 | 2.53040 | 24936 ft | 455 kts | 190° |
| 2026-04-21 20:33 | 48.20234 | 2.52751 | 25441 ft | 459 kts | 190° |
| 2026-04-21 20:34 | 48.17033 | 2.52458 | 25944 ft | 461 kts | 189° |
| 2026-04-21 20:34 | 48.13818 | 2.52165 | 26451 ft | 465 kts | 190° |
| 2026-04-21 20:34 | 48.10562 | 2.51987 | 26903 ft | 474 kts | 185° |
| 2026-04-21 20:34 | 48.07259 | 2.52524 | 27424 ft | 484 kts | 175° |
| 2026-04-21 20:35 | 48.03966 | 2.53810 | 27932 ft | 493 kts | 166° |
| 2026-04-21 20:35 | 48.00695 | 2.55447 | 28440 ft | 497 kts | 166° |
| 2026-04-21 20:35 | 47.97398 | 2.57072 | 28903 ft | 501 kts | 166° |
| 2026-04-21 20:35 | 47.94069 | 2.58692 | 29422 ft | 505 kts | 166° |
| 2026-04-21 20:36 | 47.90720 | 2.60335 | 29904 ft | 509 kts | 166° |
| 2026-04-21 20:36 | 47.87340 | 2.62006 | 30361 ft | 513 kts | 166° |
| 2026-04-21 20:36 | 47.83944 | 2.63674 | 30809 ft | 515 kts | 166° |
| 2026-04-21 20:36 | 47.80531 | 2.65338 | 31329 ft | 516 kts | 167° |
| 2026-04-21 20:37 | 47.77167 | 2.66981 | 32029 ft | 512 kts | 167° |
| 2026-04-21 20:37 | 47.73802 | 2.68628 | 32691 ft | 509 kts | 167° |
| 2026-04-21 20:37 | 47.70406 | 2.70285 | 33387 ft | 507 kts | 167° |
| 2026-04-21 20:37 | 47.67101 | 2.71891 | 34057 ft | 505 kts | 167° |
| 2026-04-21 20:38 | 47.63770 | 2.73508 | 34655 ft | 502 kts | 167° |
| 2026-04-21 20:38 | 47.60407 | 2.75140 | 35083 ft | 504 kts | 167° |
| 2026-04-21 20:38 | 47.57036 | 2.76766 | 35069 ft | 516 kts | 167° |
| 2026-04-21 20:38 | 47.53627 | 2.78412 | 35075 ft | 527 kts | 167° |
| 2026-04-21 20:39 | 47.46515 | 2.81856 | 35077 ft | 547 kts | 166° |
| 2026-04-21 20:39 | 47.39202 | 2.85378 | 35076 ft | 556 kts | 166° |
| 2026-04-21 20:40 | 47.31840 | 2.88919 | 35060 ft | 555 kts | 166° |
| 2026-04-21 20:40 | 47.24470 | 2.92441 | 35065 ft | 559 kts | 167° |
| 2026-04-21 20:41 | 47.17073 | 2.95980 | 35058 ft | 559 kts | 167° |
| 2026-04-21 20:41 | 47.09674 | 2.99383 | 35040 ft | 554 kts | 169° |
| 2026-04-21 20:42 | 47.02234 | 3.02417 | 35043 ft | 555 kts | 169° |
| 2026-04-21 20:42 | 46.94798 | 3.05499 | 35046 ft | 555 kts | 169° |
| 2026-04-21 20:43 | 46.87360 | 3.08533 | 35045 ft | 554 kts | 169° |
| 2026-04-21 20:43 | 46.79939 | 3.11574 | 35045 ft | 554 kts | 169° |
| 2026-04-21 20:44 | 46.72518 | 3.14596 | 35026 ft | 554 kts | 169° |
| 2026-04-21 20:44 | 46.65089 | 3.17616 | 35019 ft | 554 kts | 169° |
| 2026-04-21 20:45 | 46.57666 | 3.20625 | 35017 ft | 554 kts | 169° |
| 2026-04-21 20:45 | 46.50217 | 3.23632 | 35017 ft | 558 kts | 169° |
| 2026-04-21 20:46 | 46.42748 | 3.26647 | 35014 ft | 557 kts | 169° |
| 2026-04-21 20:46 | 46.35277 | 3.29645 | 35001 ft | 557 kts | 169° |
| 2026-04-21 20:47 | 46.27809 | 3.32640 | 34992 ft | 556 kts | 169° |
| 2026-04-21 20:47 | 46.20351 | 3.35619 | 34988 ft | 556 kts | 169° |
| 2026-04-21 20:48 | 46.12905 | 3.38586 | 34984 ft | 555 kts | 169° |
| 2026-04-21 20:48 | 46.05468 | 3.41540 | 34989 ft | 554 kts | 169° |
| 2026-04-21 20:49 | 45.98034 | 3.44486 | 34998 ft | 554 kts | 169° |
| 2026-04-21 20:49 | 45.90599 | 3.47423 | 34994 ft | 554 kts | 169° |
| 2026-04-21 20:50 | 45.83198 | 3.50472 | 34989 ft | 555 kts | 167° |
| 2026-04-21 20:50 | 45.75806 | 3.53644 | 34986 ft | 554 kts | 168° |
| 2026-04-21 20:51 | 45.68432 | 3.56821 | 34988 ft | 551 kts | 167° |
| 2026-04-21 20:51 | 45.61099 | 3.59966 | 34988 ft | 550 kts | 168° |
| 2026-04-21 20:52 | 45.53765 | 3.63099 | 34982 ft | 551 kts | 167° |
| 2026-04-21 20:52 | 45.46429 | 3.66235 | 34981 ft | 549 kts | 168° |
| 2026-04-21 20:53 | 45.39120 | 3.69393 | 34962 ft | 551 kts | 165° |
| 2026-04-21 20:53 | 45.32263 | 3.74414 | 34944 ft | 561 kts | 148° |
| 2026-04-21 20:54 | 45.26553 | 3.81970 | 34979 ft | 565 kts | 131° |
| 2026-04-21 20:54 | 45.21942 | 3.91071 | 34992 ft | 570 kts | 125° |
| 2026-04-21 20:55 | 45.17255 | 4.00104 | 34987 ft | 569 kts | 131° |
| 2026-04-21 20:55 | 45.12039 | 4.08558 | 34983 ft | 570 kts | 131° |
| 2026-04-21 20:56 | 45.07244 | 4.17354 | 34969 ft | 567 kts | 129° |
| 2026-04-21 20:56 | 45.02005 | 4.25629 | 34961 ft | 563 kts | 140° |
| 2026-04-21 20:57 | 44.95860 | 4.32420 | 34962 ft | 560 kts | 146° |
| 2026-04-21 20:57 | 44.89802 | 4.39392 | 34950 ft | 560 kts | 142° |
| 2026-04-21 20:58 | 44.83755 | 4.46227 | 34952 ft | 557 kts | 145° |
| 2026-04-21 20:58 | 44.77705 | 4.53033 | 34953 ft | 557 kts | 143° |
| 2026-04-21 20:59 | 44.71657 | 4.59895 | 34944 ft | 561 kts | 145° |
| 2026-04-21 20:59 | 44.65527 | 4.66728 | 34941 ft | 563 kts | 144° |
| 2026-04-21 21:00 | 44.59426 | 4.73616 | 34937 ft | 562 kts | 144° |
| 2026-04-21 21:00 | 44.53465 | 4.80711 | 34924 ft | 565 kts | 138° |
| 2026-04-21 21:01 | 44.47995 | 4.88638 | 34918 ft | 564 kts | 137° |
| 2026-04-21 21:01 | 44.42405 | 4.96339 | 34921 ft | 564 kts | 138° |
| 2026-04-21 21:02 | 44.39662 | 5.00173 | 34307 ft | 548 kts | 137° |
| 2026-04-21 21:02 | 44.37063 | 5.03904 | 33563 ft | 528 kts | 137° |
| 2026-04-21 21:02 | 44.34516 | 5.07488 | 32870 ft | 510 kts | 138° |
| 2026-04-21 21:02 | 44.32011 | 5.10920 | 32212 ft | 502 kts | 138° |
| 2026-04-21 21:03 | 44.29529 | 5.14343 | 31544 ft | 504 kts | 137° |
| 2026-04-21 21:03 | 44.26956 | 5.17706 | 30839 ft | 509 kts | 144° |
| 2026-04-21 21:03 | 44.23934 | 5.20263 | 30222 ft | 509 kts | 154° |
| 2026-04-21 21:03 | 44.20831 | 5.22620 | 29531 ft | 505 kts | 155° |
| 2026-04-21 21:04 | 44.17757 | 5.24940 | 28874 ft | 499 kts | 154° |
| 2026-04-21 21:04 | 44.14738 | 5.27251 | 28231 ft | 494 kts | 154° |
| 2026-04-21 21:04 | 44.11742 | 5.29556 | 27594 ft | 489 kts | 154° |
| 2026-04-21 21:04 | 44.08774 | 5.31816 | 26955 ft | 483 kts | 154° |
| 2026-04-21 21:05 | 44.05837 | 5.34038 | 26337 ft | 479 kts | 154° |
| 2026-04-21 21:05 | 44.02925 | 5.36246 | 25723 ft | 476 kts | 154° |
| 2026-04-21 21:05 | 44.00032 | 5.38451 | 25116 ft | 471 kts | 154° |
| 2026-04-21 21:05 | 43.97171 | 5.40625 | 24507 ft | 467 kts | 154° |
| 2026-04-21 21:06 | 43.94329 | 5.42771 | 23906 ft | 462 kts | 154° |
| 2026-04-21 21:06 | 43.91558 | 5.44856 | 23287 ft | 458 kts | 154° |
| 2026-04-21 21:06 | 43.88780 | 5.46951 | 22678 ft | 452 kts | 154° |
| 2026-04-21 21:06 | 43.86033 | 5.49025 | 22098 ft | 448 kts | 154° |
| 2026-04-21 21:07 | 43.83305 | 5.51078 | 21536 ft | 444 kts | 154° |
| 2026-04-21 21:07 | 43.80632 | 5.53087 | 20957 ft | 428 kts | 154° |
| 2026-04-21 21:07 | 43.78075 | 5.55012 | 20417 ft | 410 kts | 154° |
| 2026-04-21 21:07 | 43.75666 | 5.57032 | 19808 ft | 405 kts | 145° |
| 2026-04-21 21:08 | 43.73752 | 5.59876 | 18889 ft | 396 kts | 128° |
| 2026-04-21 21:08 | 43.72107 | 5.62889 | 18135 ft | 393 kts | 128° |
| 2026-04-21 21:08 | 43.70985 | 5.64917 | 17556 ft | 392 kts | 128° |
| 2026-04-21 21:08 | 43.69308 | 5.67858 | 16726 ft | 388 kts | 129° |
| 2026-04-21 21:09 | 43.67751 | 5.70570 | 15956 ft | 383 kts | 129° |
| 2026-04-21 21:09 | 43.66125 | 5.73454 | 15188 ft | 371 kts | 128° |
| 2026-04-21 21:09 | 43.64618 | 5.76136 | 14474 ft | 344 kts | 129° |
| 2026-04-21 21:09 | 43.63141 | 5.78723 | 13803 ft | 342 kts | 129° |
| 2026-04-21 21:10 | 43.61679 | 5.81271 | 13029 ft | 333 kts | 129° |
| 2026-04-21 21:10 | 43.60241 | 5.83791 | 12452 ft | 342 kts | 129° |
| 2026-04-21 21:10 | 43.58778 | 5.86359 | 12053 ft | 337 kts | 129° |
| 2026-04-21 21:10 | 43.57353 | 5.88859 | 11886 ft | 324 kts | 129° |
| 2026-04-21 21:11 | 43.55966 | 5.91296 | 11887 ft | 326 kts | 129° |
| 2026-04-21 21:11 | 43.54556 | 5.93769 | 11898 ft | 328 kts | 129° |
| 2026-04-21 21:11 | 43.53153 | 5.96229 | 11832 ft | 323 kts | 129° |
| 2026-04-21 21:11 | 43.51766 | 5.98661 | 11034 ft | 324 kts | 129° |
| 2026-04-21 21:12 | 43.50373 | 6.01095 | 10392 ft | 320 kts | 128° |
| 2026-04-21 21:12 | 43.49002 | 6.03493 | 9764 ft | 320 kts | 129° |
| 2026-04-21 21:12 | 43.47632 | 6.05886 | 9554 ft | 317 kts | 129° |
| 2026-04-21 21:12 | 43.46267 | 6.08271 | 9277 ft | 316 kts | 129° |
| 2026-04-21 21:13 | 43.44916 | 6.10630 | 8991 ft | 311 kts | 129° |
| 2026-04-21 21:13 | 43.43726 | 6.13087 | 8693 ft | 307 kts | 120° |
| 2026-04-21 21:13 | 43.42642 | 6.15617 | 8412 ft | 306 kts | 121° |
| 2026-04-21 21:13 | 43.41542 | 6.18116 | 8120 ft | 304 kts | 121° |
| 2026-04-21 21:14 | 43.40452 | 6.20596 | 7840 ft | 302 kts | 121° |
| 2026-04-21 21:14 | 43.39381 | 6.23061 | 7554 ft | 299 kts | 121° |
| 2026-04-21 21:14 | 43.38311 | 6.25505 | 7271 ft | 297 kts | 122° |
| 2026-04-21 21:14 | 43.37148 | 6.27849 | 6987 ft | 296 kts | 123° |
| 2026-04-21 21:15 | 43.36065 | 6.30250 | 6716 ft | 295 kts | 121° |
| 2026-04-21 21:15 | 43.34993 | 6.32630 | 6477 ft | 292 kts | 123° |
| 2026-04-21 21:15 | 43.33913 | 6.34903 | 6219 ft | 276 kts | 123° |
| 2026-04-21 21:15 | 43.32883 | 6.37056 | 5949 ft | 263 kts | 123° |
| 2026-04-21 21:16 | 43.31917 | 6.39110 | 5929 ft | 252 kts | 123° |
| 2026-04-21 21:16 | 43.30972 | 6.41124 | 5960 ft | 252 kts | 123° |
| 2026-04-21 21:16 | 43.30010 | 6.43160 | 5944 ft | 254 kts | 123° |
| 2026-04-21 21:16 | 43.29048 | 6.45192 | 5943 ft | 254 kts | 124° |
| 2026-04-21 21:17 | 43.28104 | 6.47257 | 5943 ft | 256 kts | 119° |
| 2026-04-21 21:17 | 43.27683 | 6.49632 | 5934 ft | 256 kts | 94° |
| 2026-04-21 21:17 | 43.27550 | 6.52083 | 5958 ft | 259 kts | 93° |
| 2026-04-21 21:17 | 43.27394 | 6.54545 | 5957 ft | 259 kts | 94° |
| 2026-04-21 21:18 | 43.27215 | 6.57003 | 5972 ft | 259 kts | 94° |
| 2026-04-21 21:18 | 43.27044 | 6.59458 | 5973 ft | 259 kts | 94° |
| 2026-04-21 21:18 | 43.26878 | 6.61915 | 5977 ft | 258 kts | 94° |
| 2026-04-21 21:18 | 43.26712 | 6.64362 | 5978 ft | 258 kts | 94° |
| 2026-04-21 21:19 | 43.26542 | 6.66821 | 5972 ft | 258 kts | 94° |
| 2026-04-21 21:19 | 43.26374 | 6.69273 | 5971 ft | 258 kts | 93° |
| 2026-04-21 21:19 | 43.26552 | 6.71682 | 5884 ft | 255 kts | 67° |
| 2026-04-21 21:19 | 43.27358 | 6.73867 | 5549 ft | 257 kts | 57° |
| 2026-04-21 21:20 | 43.28238 | 6.75987 | 5236 ft | 254 kts | 58° |
| 2026-04-21 21:20 | 43.29086 | 6.78102 | 4920 ft | 252 kts | 59° |
| 2026-04-21 21:20 | 43.29899 | 6.80176 | 4604 ft | 249 kts | 59° |
| 2026-04-21 21:20 | 43.30732 | 6.82287 | 4282 ft | 247 kts | 59° |
| 2026-04-21 21:21 | 43.31548 | 6.84344 | 3977 ft | 244 kts | 59° |
| 2026-04-21 21:21 | 43.32352 | 6.86378 | 3675 ft | 242 kts | 60° |
| 2026-04-21 21:21 | 43.33141 | 6.88374 | 3381 ft | 239 kts | 60° |
| 2026-04-21 21:21 | 43.33928 | 6.90369 | 3081 ft | 236 kts | 61° |
| 2026-04-21 21:22 | 43.34707 | 6.92343 | 2786 ft | 233 kts | 61° |
| 2026-04-21 21:22 | 43.35476 | 6.94294 | 2494 ft | 231 kts | 62° |
| 2026-04-21 21:22 | 43.36251 | 6.96210 | 2203 ft | 228 kts | 59° |
| 2026-04-21 21:22 | 43.37433 | 6.97613 | 1825 ft | 227 kts | 22° |
| 2026-04-21 21:23 | 43.38944 | 6.97889 | 1882 ft | 219 kts | 356° |
| 2026-04-21 21:23 | 43.40487 | 6.97621 | 1994 ft | 227 kts | 352° |
| 2026-04-21 21:23 | 43.42062 | 6.97333 | 1983 ft | 229 kts | 354° |
| 2026-04-21 21:23 | 43.43644 | 6.97056 | 1980 ft | 229 kts | 354° |
| 2026-04-21 21:24 | 43.45206 | 6.96782 | 1963 ft | 218 kts | 354° |
| 2026-04-21 21:24 | 43.46687 | 6.96519 | 1730 ft | 216 kts | 354° |
| 2026-04-21 21:24 | 43.48145 | 6.96261 | 1375 ft | 200 kts | 354° |
| 2026-04-21 21:24 | 43.49416 | 6.96034 | 1083 ft | 174 kts | 354° |
| 2026-04-21 21:25 | 43.50535 | 6.95837 | 814 ft | 149 kts | 353° |
| 2026-04-21 21:25 | 43.51497 | 6.95668 | 584 ft | 133 kts | 353° |
| 2026-04-21 21:25 | 43.52400 | 6.95513 | 377 ft | 127 kts | 352° |
| 2026-04-21 21:25 | 43.53270 | 6.95356 | 233 ft | 128 kts | 353° |
| 2026-04-21 21:26 | 43.54153 | 6.95200 | 54 ft | 127 kts | 353° |
| 2026-04-21 21:26 | 43.54941 | 6.95061 | 18 ft | 90 kts | 354° |
| 2026-04-21 21:26 | 43.55294 | 6.94999 | 18 ft | 23 kts | 352° |
| 2026-04-21 21:26 | 43.55386 | 6.95034 | 20 ft | 10 kts | 75° |
| 2026-04-21 21:27 | 43.55392 | 6.95142 | 19 ft | 6 kts | 104° |
| 2026-04-21 21:27 | 43.55360 | 6.95154 | 21 ft | 5 kts | 171° |
| 2026-04-21 21:27 | 43.55315 | 6.95163 | 19 ft | 8 kts | 171° |
| 2026-04-21 21:27 | 43.55257 | 6.95172 | 19 ft | 9 kts | 176° |
| 2026-04-21 21:28 | 43.55190 | 6.95185 | 19 ft | 11 kts | 172° |
| 2026-04-21 21:28 | 43.55111 | 6.95197 | 19 ft | 12 kts | 174° |
| 2026-04-21 21:28 | 43.54995 | 6.95218 | 19 ft | 8 kts | 165° |
| 2026-04-21 21:29 | 43.54936 | 6.95229 | 19 ft | 9 kts | 174° |
| 2026-04-21 21:29 | 43.54872 | 6.95240 | 20 ft | 2 kts | 174° |
| 2026-04-21 21:29 | 43.54867 | 6.95241 | 19 ft | 0 kts | 174° |
| 2026-04-21 21:30 | 43.54857 | 6.95242 | 19 ft | 3 kts | 172° |
| 2026-04-21 21:30 | 43.54826 | 6.95248 | 21 ft | 6 kts | 173° |
| 2026-04-21 21:31 | 43.54789 | 6.95254 | 19 ft | 5 kts | 169° |
| 2026-04-21 21:31 | 43.54760 | 6.95260 | 19 ft | 4 kts | 174° |
| 2026-04-21 21:31 | 43.54721 | 6.95267 | 19 ft | 7 kts | 172° |
| 2026-04-21 21:31 | 43.54661 | 6.95277 | 19 ft | 7 kts | 172° |
| 2026-04-21 21:32 | 43.54640 | 6.95303 | 20 ft | 4 kts | 115° |
| 2026-04-21 21:32 | 43.54617 | 6.95321 | 19 ft | 1 kts | 175° |
| 2026-04-21 21:32 | 43.54614 | 6.95322 | 19 ft | 1 kts | 174° |
| 2026-04-21 21:32 | 43.54612 | 6.95322 | 19 ft | 0 kts | 174° |